Time;durP1;ratioP1;P1;durP2;ratioP2;P2;SDS_P1;SDS_P2;PMS_P1;PMS_P2;Temp;Humidity;BMP_temperature;BMP_pressure;BME280_temperature;BME280_humidity;BME280_pressure;Samples;Min_cycle;Max_cycle;Signal;HPM_P1;HPM_P2
2023/07/13 00:00:09;;;;;;;1.40;0.70;;;;;26.40;100387.00;;;;2077275;28;20208;-56
2023/07/13 00:01:10;;;;;;;1.30;0.80;;;;;26.40;100392.00;;;;2076307;28;20240;-56
2023/07/13 00:02:11;;;;;;;1.17;0.70;;;;;26.40;100387.00;;;;2079578;28;21015;-58
2023/07/13 00:03:13;;;;;;;0.90;0.70;;;;;26.40;100389.00;;;;2079975;28;20440;-60
2023/07/13 00:04:13;;;;;;;1.30;1.00;;;;;26.40;100397.00;;;;2072578;28;20220;-56
2023/07/13 00:05:14;;;;;;;1.40;0.70;;;;;26.40;100392.00;;;;2081461;28;20463;-55
2023/07/13 00:06:14;;;;;;;2.30;1.00;;;;;26.40;100387.00;;;;2080776;28;20224;-55
2023/07/13 00:07:14;;;;;;;1.17;0.70;;;;;26.40;100391.00;;;;2079602;28;20260;-55
2023/07/13 00:08:15;;;;;;;1.40;0.90;;;;;26.40;100383.00;;;;2078166;28;20213;-55
2023/07/13 00:09:16;;;;;;;1.40;1.00;;;;;26.40;100393.00;;;;2067664;28;20217;-57
2023/07/13 00:10:17;;;;;;;1.20;0.80;;;;;26.40;100398.00;;;;2084969;28;20216;-57
2023/07/13 00:11:17;;;;;;;1.50;0.87;;;;;26.40;100398.00;;;;2079496;28;20894;-56
2023/07/13 00:12:28;;;;;;;1.17;0.70;;;;;26.40;100390.00;;;;2076649;28;20218;-57
2023/07/13 00:13:29;;;;;;;1.40;0.80;;;;;26.40;100391.00;;;;2075434;28;20237;-56
2023/07/13 00:14:30;;;;;;;1.10;0.80;;;;;26.40;100388.00;;;;2067424;28;20455;-57
2023/07/13 00:15:31;;;;;;;1.23;0.80;;;;;26.40;100387.00;;;;2083780;28;20598;-53
2023/07/13 00:16:33;;;;;;;1.53;0.70;;;;;26.40;100379.00;;;;2082902;28;20824;-56
2023/07/13 00:17:34;;;;;;;1.23;1.00;;;;;26.40;100384.00;;;;2083029;28;20458;-55
2023/07/13 00:18:34;;;;;;;1.13;0.87;;;;;26.40;100392.00;;;;2078682;28;20463;-55
2023/07/13 00:19:36;;;;;;;1.70;0.90;;;;;26.40;100382.00;;;;2067943;28;20216;-55
2023/07/13 00:20:36;;;;;;;1.03;0.73;;;;;26.40;100387.00;;;;2083924;28;20213;-56
2023/07/13 00:21:36;;;;;;;1.70;0.90;;;;;26.40;100392.00;;;;2078714;28;20985;-52
2023/07/13 00:22:37;;;;;;;1.37;1.10;;;;;26.40;100385.00;;;;2080601;28;20749;-52
2023/07/13 00:23:39;;;;;;;1.17;0.83;;;;;26.40;100386.00;;;;2077533;28;20300;-53
2023/07/13 00:24:41;;;;;;;1.27;0.80;;;;;26.40;100383.00;;;;2073806;28;20217;-55
2023/07/13 00:25:42;;;;;;;1.20;0.90;;;;;26.40;100386.00;;;;2077926;28;20460;-56
2023/07/13 00:26:45;;;;;;;1.20;0.77;;;;;26.40;100388.00;;;;2076636;28;20461;-55
2023/07/13 00:27:48;;;;;;;1.63;1.00;;;;;26.40;100387.00;;;;2083391;28;20232;-54
2023/07/13 00:28:48;;;;;;;1.20;0.90;;;;;26.40;100389.00;;;;2067267;28;20484;-56
2023/07/13 00:29:49;;;;;;;1.90;0.90;;;;;26.40;100392.00;;;;2084844;28;20447;-55
2023/07/13 00:30:49;;;;;;;1.27;0.90;;;;;26.40;100393.00;;;;2077488;28;20202;-56
2023/07/13 00:31:50;;;;;;;1.17;0.80;;;;;26.40;100392.00;;;;2082890;28;20213;-56
2023/07/13 00:32:50;;;;;;;0.90;0.80;;;;;26.40;100391.00;;;;2078690;28;20586;-56
2023/07/13 00:33:51;;;;;;;2.60;0.97;;;;;26.40;100384.00;;;;2066776;28;20225;-55
2023/07/13 00:34:52;;;;;;;1.93;0.90;;;;;26.40;100394.00;;;;2082097;28;20584;-55
2023/07/13 00:35:53;;;;;;;0.90;0.70;;;;;26.40;100392.00;;;;2077597;28;20304;-56
2023/07/13 00:36:54;;;;;;;1.03;0.80;;;;;26.40;100387.00;;;;2076521;28;20284;-55
2023/07/13 00:37:55;;;;;;;1.60;0.90;;;;;26.40;100387.00;;;;2079037;28;20448;-57
2023/07/13 00:38:55;;;;;;;1.47;0.90;;;;;26.40;100422.00;;;;2074587;28;20394;-56
2023/07/13 00:39:55;;;;;;;1.27;0.80;;;;;26.40;100394.00;;;;2078109;28;20875;-55
2023/07/13 00:40:56;;;;;;;1.67;0.90;;;;;26.40;100395.00;;;;2077317;28;20715;-55
2023/07/13 00:41:56;;;;;;;1.57;1.00;;;;;26.40;100394.00;;;;2077359;28;20602;-55
2023/07/13 00:42:58;;;;;;;1.47;0.93;;;;;26.40;100289.00;;;;2081070;28;20209;-55
2023/07/13 00:43:58;;;;;;;1.13;0.90;;;;;26.40;100393.00;;;;2068132;28;20219;-55
2023/07/13 00:45:11;;;;;;;1.47;1.00;;;;;26.40;100392.00;;;;2076959;28;20483;-56
2023/07/13 00:46:33;;;;;;;1.40;0.70;;;;;26.30;100395.00;;;;2077771;28;20221;-56
2023/07/13 00:47:34;;;;;;;1.47;0.90;;;;;26.30;100391.00;;;;2076410;28;20456;-55
2023/07/13 00:48:34;;;;;;;1.33;0.90;;;;;26.30;100387.00;;;;2076724;28;20472;-59
2023/07/13 00:49:35;;;;;;;1.67;0.93;;;;;26.30;100389.00;;;;2074294;28;20293;-58
2023/07/13 00:50:35;;;;;;;0.90;0.70;;;;;26.30;100380.00;;;;2070720;28;20261;-60
2023/07/13 00:51:48;;;;;;;1.20;0.80;;;;;26.30;100384.00;;;;2075404;28;20240;-57
2023/07/13 00:52:51;;;;;;;1.27;1.10;;;;;26.30;100383.00;;;;2074861;28;20221;-59
2023/07/13 00:53:53;;;;;;;1.60;0.87;;;;;26.30;100387.00;;;;2052005;28;20462;-55
2023/07/13 00:54:53;;;;;;;1.10;0.67;;;;;26.30;100391.00;;;;2061914;28;20450;-56
2023/07/13 00:55:53;;;;;;;1.60;1.00;;;;;26.30;100394.00;;;;2067332;28;20481;-55
2023/07/13 00:56:55;;;;;;;1.20;0.80;;;;;26.30;100398.00;;;;2066210;28;20226;-56
2023/07/13 00:57:56;;;;;;;1.20;0.80;;;;;26.30;100396.00;;;;2071192;28;20518;-55
2023/07/13 00:58:56;;;;;;;0.90;0.60;;;;;26.30;100378.00;;;;2066453;28;20491;-55
2023/07/13 00:59:58;;;;;;;1.90;1.00;;;;;26.30;100384.00;;;;2076936;28;20720;-55
2023/07/13 01:00:58;;;;;;;1.20;0.60;;;;;26.30;100388.00;;;;2081114;28;20213;-55
2023/07/13 01:01:59;;;;;;;1.00;0.70;;;;;26.30;100392.00;;;;2083324;28;20447;-59
2023/07/13 01:02:59;;;;;;;1.97;1.00;;;;;26.30;100390.00;;;;2078457;28;20217;-59
2023/07/13 01:03:59;;;;;;;1.50;0.90;;;;;26.30;100389.00;;;;2066589;28;20319;-56
2023/07/13 01:05:01;;;;;;;1.93;0.90;;;;;26.30;100390.00;;;;2077053;28;20209;-56
2023/07/13 01:06:02;;;;;;;1.73;0.90;;;;;26.30;100397.00;;;;2080615;28;20205;-55
2023/07/13 01:07:02;;;;;;;1.77;0.90;;;;;26.30;100395.00;;;;2077487;28;20491;-56
2023/07/13 01:08:03;;;;;;;1.30;0.90;;;;;26.30;100389.00;;;;2078852;28;20223;-57
2023/07/13 01:09:04;;;;;;;1.50;0.90;;;;;26.30;100389.00;;;;2061564;28;20263;-55
2023/07/13 01:10:05;;;;;;;1.57;0.80;;;;;26.30;100389.00;;;;2082349;28;20537;-56
2023/07/13 01:11:05;;;;;;;1.30;0.90;;;;;26.30;100384.00;;;;2076892;28;20320;-55
2023/07/13 01:12:06;;;;;;;1.10;0.80;;;;;26.30;100378.00;;;;2079086;28;20467;-55
2023/07/13 01:13:08;;;;;;;1.30;0.77;;;;;26.30;100388.00;;;;2085379;28;20212;-56
2023/07/13 01:14:08;;;;;;;1.90;0.83;;;;;26.30;100390.00;;;;2068484;28;20476;-55
2023/07/13 01:15:33;;;;;;;1.20;0.90;;;;;26.30;100390.00;;;;2081856;28;20866;-55
2023/07/13 01:16:34;;;;;;;1.50;0.97;;;;;26.30;100378.00;;;;2065974;28;20210;-55
2023/07/13 01:17:35;;;;;;;1.87;1.00;;;;;26.30;100387.00;;;;2077158;28;20467;-55
2023/07/13 01:18:36;;;;;;;1.30;0.73;;;;;26.30;100391.00;;;;2080431;28;20471;-56
2023/07/13 01:19:43;;;;;;;0.80;0.63;;;;;26.30;100387.00;;;;2066336;28;20222;-55
2023/07/13 01:20:59;;;;;;;1.00;0.60;;;;;26.30;100397.00;;;;2077218;28;20298;-54
2023/07/13 01:21:59;;;;;;;1.80;1.07;;;;;26.30;100388.00;;;;2078849;28;20545;-55
2023/07/13 01:23:00;;;;;;;0.97;0.70;;;;;26.30;100380.00;;;;2077227;28;20468;-55
2023/07/13 01:24:01;;;;;;;1.37;1.00;;;;;26.30;100383.00;;;;2074355;28;20232;-55
2023/07/13 01:25:02;;;;;;;1.60;0.90;;;;;26.30;100382.00;;;;2084383;28;20279;-60
2023/07/13 01:26:03;;;;;;;1.10;0.63;;;;;26.30;100386.00;;;;2080685;28;20898;-55
2023/07/13 01:27:05;;;;;;;0.90;0.60;;;;;26.30;100379.00;;;;2077229;28;20832;-56
2023/07/13 01:28:06;;;;;;;0.90;0.63;;;;;26.30;100384.00;;;;2076434;28;20210;-56
2023/07/13 01:29:07;;;;;;;1.17;0.83;;;;;26.30;100380.00;;;;2070430;28;20460;-56
2023/07/13 01:30:09;;;;;;;1.90;0.73;;;;;26.30;100378.00;;;;2077285;28;20224;-56
2023/07/13 01:31:09;;;;;;;1.30;0.70;;;;;26.30;100379.00;;;;2077127;28;20466;-54
2023/07/13 01:32:13;;;;;;;1.33;0.70;;;;;26.30;100385.00;;;;2084288;28;20461;-56
2023/07/13 01:33:17;;;;;;;1.10;0.80;;;;;26.30;100382.00;;;;2075456;28;20209;-55
2023/07/13 01:34:17;;;;;;;1.20;0.80;;;;;26.30;100375.00;;;;2071011;28;20463;-55
2023/07/13 01:35:17;;;;;;;2.00;0.90;;;;;26.30;100383.00;;;;2078326;28;20456;-56
2023/07/13 01:36:20;;;;;;;1.07;0.80;;;;;26.30;100381.00;;;;2078411;28;20292;-56
2023/07/13 01:37:20;;;;;;;1.43;0.90;;;;;26.30;100381.00;;;;2082285;28;20205;-56
2023/07/13 01:38:22;;;;;;;1.87;0.90;;;;;26.30;100380.00;;;;2078056;28;20539;-60
2023/07/13 01:39:23;;;;;;;1.33;0.70;;;;;26.30;100385.00;;;;2071126;28;20225;-56
2023/07/13 01:40:23;;;;;;;0.90;0.70;;;;;26.30;100385.00;;;;2076930;28;20531;-58
2023/07/13 01:41:23;;;;;;;1.37;0.90;;;;;26.30;100384.00;;;;2076883;28;20225;-54
2023/07/13 01:42:24;;;;;;;1.97;0.80;;;;;26.30;100389.00;;;;2078104;28;20544;-55
2023/07/13 01:43:24;;;;;;;0.97;0.63;;;;;26.30;100374.00;;;;2079311;28;20241;-55
2023/07/13 01:44:25;;;;;;;1.47;0.70;;;;;26.30;100386.00;;;;2074986;28;20243;-55
2023/07/13 01:45:26;;;;;;;1.23;0.80;;;;;26.30;100387.00;;;;2085119;28;20401;-56
2023/07/13 01:46:26;;;;;;;1.67;1.00;;;;;26.30;100393.00;;;;2078673;28;20468;-56
2023/07/13 01:47:27;;;;;;;1.60;0.83;;;;;26.30;100389.00;;;;2077407;28;20351;-56
2023/07/13 01:48:28;;;;;;;0.90;0.70;;;;;26.30;100390.00;;;;2079049;28;20217;-57
2023/07/13 01:49:28;;;;;;;1.17;0.90;;;;;26.30;100384.00;;;;2068727;28;20467;-56
2023/07/13 01:50:28;;;;;;;1.10;0.87;;;;;26.30;100388.00;;;;2085030;28;20217;-56
2023/07/13 01:51:29;;;;;;;1.57;0.80;;;;;26.30;100389.00;;;;2077856;28;20218;-53
2023/07/13 01:52:29;;;;;;;0.90;0.60;;;;;26.30;100395.00;;;;2080287;28;20705;-54
2023/07/13 01:53:29;;;;;;;1.00;0.80;;;;;26.30;100399.00;;;;2078252;28;20221;-55
2023/07/13 01:54:30;;;;;;;1.33;0.80;;;;;26.30;100391.00;;;;2068095;28;20240;-53
2023/07/13 01:55:30;;;;;;;1.97;0.77;;;;;26.20;100396.00;;;;2085956;28;20220;-53
2023/07/13 01:56:31;;;;;;;2.60;1.00;;;;;26.30;100404.00;;;;2080617;28;20213;-55
2023/07/13 01:57:31;;;;;;;0.80;0.70;;;;;26.30;100399.00;;;;2078990;28;20244;-56
2023/07/13 01:58:31;;;;;;;1.33;0.90;;;;;26.20;100404.00;;;;2076414;28;20217;-54
2023/07/13 01:59:33;;;;;;;1.40;1.00;;;;;26.30;100397.00;;;;2067396;28;20279;-56
2023/07/13 02:00:33;;;;;;;1.23;0.70;;;;;26.30;100401.00;;;;2080833;28;20209;-53
2023/07/13 02:01:34;;;;;;;1.07;0.73;;;;;26.30;100396.00;;;;2079748;28;20470;-59
2023/07/13 02:02:34;;;;;;;0.90;0.70;;;;;26.20;100400.00;;;;2076450;28;20221;-55
2023/07/13 02:03:34;;;;;;;1.00;0.70;;;;;26.30;100399.00;;;;2081524;28;20208;-53
2023/07/13 02:04:36;;;;;;;1.37;0.80;;;;;26.20;100400.00;;;;2070504;28;20229;-55
2023/07/13 02:05:36;;;;;;;1.47;0.80;;;;;26.20;100405.00;;;;2077354;28;20219;-55
2023/07/13 02:06:36;;;;;;;2.30;0.80;;;;;26.20;100396.00;;;;2076309;28;20827;-53
2023/07/13 02:07:37;;;;;;;1.07;0.60;;;;;26.20;100404.00;;;;2076449;28;20217;-58
2023/07/13 02:08:37;;;;;;;2.60;1.10;;;;;26.20;100400.00;;;;2077276;28;20328;-56
2023/07/13 02:09:38;;;;;;;0.87;0.60;;;;;26.20;100395.00;;;;2069288;28;20300;-55
2023/07/13 02:10:38;;;;;;;1.20;0.70;;;;;26.20;100406.00;;;;2076518;28;20213;-55
2023/07/13 02:11:38;;;;;;;1.10;0.63;;;;;26.30;100401.00;;;;2077325;28;20213;-54
2023/07/13 02:12:39;;;;;;;1.30;0.70;;;;;26.20;100406.00;;;;2080467;28;20214;-59
2023/07/13 02:13:40;;;;;;;1.90;0.80;;;;;26.20;100399.00;;;;2070547;28;20225;-57
2023/07/13 02:14:40;;;;;;;1.10;0.90;;;;;26.20;100399.00;;;;2082457;28;21287;-56
2023/07/13 02:15:40;;;;;;;1.07;0.57;;;;;26.20;100404.00;;;;2077993;28;20216;-56
2023/07/13 02:16:41;;;;;;;1.33;0.70;;;;;26.20;100425.00;;;;2084094;28;20213;-56
2023/07/13 02:17:41;;;;;;;1.17;0.80;;;;;26.20;100400.00;;;;2080183;28;20613;-61
2023/07/13 02:18:41;;;;;;;2.60;0.97;;;;;26.20;100406.00;;;;2074773;28;20632;-56
2023/07/13 02:19:42;;;;;;;1.30;0.70;;;;;26.20;100404.00;;;;2084703;28;20643;-55
2023/07/13 02:20:43;;;;;;;1.23;0.70;;;;;26.20;100406.00;;;;2080292;28;20587;-56
2023/07/13 02:21:43;;;;;;;1.20;0.80;;;;;26.20;100399.00;;;;2076101;28;20304;-56
2023/07/13 02:22:43;;;;;;;2.03;0.70;;;;;25.80;100417.00;;;;2078746;28;20587;-56
2023/07/13 02:23:44;;;;;;;1.90;0.60;;;;;26.20;100405.00;;;;2066980;28;20213;-55
2023/07/13 02:24:44;;;;;;;1.23;0.77;;;;;26.20;100404.00;;;;2082727;28;20251;-56
2023/07/13 02:25:45;;;;;;;1.33;0.60;;;;;26.20;100396.00;;;;2080223;28;20356;-55
2023/07/13 02:26:45;;;;;;;2.00;0.83;;;;;26.20;100401.00;;;;2075776;28;20217;-56
2023/07/13 02:27:45;;;;;;;1.20;0.80;;;;;26.20;100401.00;;;;2074727;28;20592;-55
2023/07/13 02:28:46;;;;;;;1.73;0.80;;;;;26.20;100404.00;;;;2069476;28;20270;-55
2023/07/13 02:29:46;;;;;;;1.20;0.80;;;;;26.20;100400.00;;;;2077122;28;20210;-56
2023/07/13 02:30:46;;;;;;;1.53;0.70;;;;;26.20;100400.00;;;;2078892;28;20296;-55
2023/07/13 02:31:47;;;;;;;1.60;0.80;;;;;26.20;100405.00;;;;2076554;28;20205;-56
2023/07/13 02:32:47;;;;;;;1.20;0.80;;;;;26.20;100405.00;;;;2084651;28;20217;-56
2023/07/13 02:33:47;;;;;;;1.03;0.70;;;;;26.20;100401.00;;;;2070835;28;20305;-55
2023/07/13 02:34:48;;;;;;;1.10;0.70;;;;;26.20;100398.00;;;;2081622;28;20282;-53
2023/07/13 02:35:48;;;;;;;1.67;0.90;;;;;26.20;100399.00;;;;2077412;28;20201;-59
2023/07/13 02:36:49;;;;;;;3.87;0.97;;;;;26.20;100394.00;;;;2078063;28;20225;-56
2023/07/13 02:37:49;;;;;;;1.70;0.80;;;;;26.20;100392.00;;;;2077161;28;20214;-57
2023/07/13 02:38:50;;;;;;;2.30;0.77;;;;;26.20;100397.00;;;;2067397;28;20846;-54
2023/07/13 02:39:50;;;;;;;1.10;0.70;;;;;26.20;100390.00;;;;2076827;28;20221;-52
2023/07/13 02:40:51;;;;;;;1.37;1.03;;;;;26.20;100393.00;;;;2076509;28;20965;-56
2023/07/13 02:41:51;;;;;;;0.97;0.70;;;;;26.20;100396.00;;;;2080686;28;20205;-55
2023/07/13 02:42:51;;;;;;;1.60;0.90;;;;;26.20;100401.00;;;;2076828;28;20210;-56
2023/07/13 02:43:52;;;;;;;1.27;0.80;;;;;26.20;100397.00;;;;2065556;28;20341;-56
2023/07/13 02:44:52;;;;;;;1.60;0.87;;;;;26.20;100392.00;;;;2075792;28;20217;-55
2023/07/13 02:45:52;;;;;;;1.00;0.80;;;;;26.20;100397.00;;;;2076479;28;20213;-56
2023/07/13 02:46:53;;;;;;;1.00;0.73;;;;;26.20;100400.00;;;;2080768;28;20222;-55
2023/07/13 02:47:53;;;;;;;1.47;0.90;;;;;26.20;100401.00;;;;2076632;28;20217;-56
2023/07/13 02:48:54;;;;;;;1.83;0.70;;;;;26.20;100401.00;;;;2067577;28;20749;-56
2023/07/13 02:49:54;;;;;;;1.47;0.70;;;;;26.20;100398.00;;;;2079307;28;20253;-55
2023/07/13 02:50:55;;;;;;;1.20;0.73;;;;;26.20;100407.00;;;;2077344;28;20224;-55
2023/07/13 02:51:55;;;;;;;1.67;0.70;;;;;26.20;100402.00;;;;2081934;28;20228;-55
2023/07/13 02:52:55;;;;;;;1.10;0.90;;;;;26.20;100401.00;;;;2077575;28;20248;-55
2023/07/13 02:53:56;;;;;;;0.90;0.60;;;;;26.20;100397.00;;;;2067317;28;20255;-56
2023/07/13 02:54:56;;;;;;;0.90;0.60;;;;;26.20;100402.00;;;;2079080;28;20701;-55
2023/07/13 02:55:56;;;;;;;1.53;0.80;;;;;26.20;100402.00;;;;2076171;28;20275;-55
2023/07/13 02:56:57;;;;;;;1.10;0.70;;;;;26.20;100400.00;;;;2081778;28;20221;-55
2023/07/13 02:57:57;;;;;;;1.70;0.70;;;;;26.20;100403.00;;;;2077405;28;20236;-56
2023/07/13 02:58:58;;;;;;;1.60;0.70;;;;;26.20;100401.00;;;;2067371;28;20232;-55
2023/07/13 02:59:59;;;;;;;0.93;0.73;;;;;26.20;100401.00;;;;2078274;28;20249;-56
2023/07/13 03:00:59;;;;;;;1.40;0.83;;;;;26.20;100405.00;;;;2077272;28;20222;-56
2023/07/13 03:02:01;;;;;;;1.40;0.73;;;;;26.20;100397.00;;;;2081925;28;20455;-56
2023/07/13 03:03:01;;;;;;;1.20;0.70;;;;;25.70;100410.00;;;;2079396;28;20227;-56
2023/07/13 03:04:02;;;;;;;1.30;0.83;;;;;26.20;100396.00;;;;2067440;28;20479;-55
2023/07/13 03:05:02;;;;;;;1.20;0.77;;;;;26.20;100405.00;;;;2079536;28;20216;-55
2023/07/13 03:06:04;;;;;;;1.10;0.70;;;;;26.20;100411.00;;;;2083414;28;20248;-55
2023/07/13 03:07:05;;;;;;;1.20;0.80;;;;;26.20;100404.00;;;;2081323;28;20239;-55
2023/07/13 03:08:06;;;;;;;1.07;0.60;;;;;26.20;100396.00;;;;2080320;28;20463;-56
2023/07/13 03:09:06;;;;;;;0.90;0.60;;;;;26.20;100408.00;;;;2066708;28;20229;-55
2023/07/13 03:10:07;;;;;;;1.70;0.67;;;;;26.20;100407.00;;;;2074279;28;20252;-55
2023/07/13 03:11:10;;;;;;;0.90;0.57;;;;;26.20;100401.00;;;;2078139;28;20279;-56
2023/07/13 03:12:10;;;;;;;2.03;0.70;;;;;26.20;100414.00;;;;2077032;28;20628;-58
2023/07/13 03:13:10;;;;;;;2.03;0.80;;;;;26.20;100413.00;;;;2076478;28;20964;-58
2023/07/13 03:14:11;;;;;;;1.13;0.80;;;;;26.20;100420.00;;;;2069177;28;20754;-57
2023/07/13 03:15:11;;;;;;;0.90;0.60;;;;;26.20;100408.00;;;;2082523;28;20217;-57
2023/07/13 03:16:12;;;;;;;1.80;0.53;;;;;26.20;100415.00;;;;2079598;28;20268;-57
2023/07/13 03:17:12;;;;;;;1.17;0.70;;;;;26.20;100416.00;;;;2082693;28;20877;-57
2023/07/13 03:18:12;;;;;;;1.03;0.60;;;;;26.20;100401.00;;;;2072478;28;20263;-57
2023/07/13 03:19:13;;;;;;;1.87;0.70;;;;;26.20;100412.00;;;;2072847;28;20248;-61
2023/07/13 03:20:13;;;;;;;1.60;0.83;;;;;26.20;100407.00;;;;2085381;28;20312;-57
2023/07/13 03:21:13;;;;;;;2.30;0.70;;;;;26.20;100407.00;;;;2082006;28;21257;-58
2023/07/13 03:22:14;;;;;;;1.03;0.77;;;;;26.20;100402.00;;;;2083481;28;20240;-58
2023/07/13 03:23:14;;;;;;;1.77;0.80;;;;;26.20;100421.00;;;;2081516;28;20209;-58
2023/07/13 03:24:15;;;;;;;1.47;0.80;;;;;26.20;100413.00;;;;2067313;28;20225;-58
2023/07/13 03:25:15;;;;;;;1.73;0.77;;;;;26.20;100409.00;;;;2077611;28;20230;-56
2023/07/13 03:26:18;;;;;;;1.30;0.70;;;;;26.20;100409.00;;;;2078142;28;20209;-57
2023/07/13 03:27:18;;;;;;;1.23;0.67;;;;;26.20;100408.00;;;;2081701;28;20205;-59
2023/07/13 03:28:18;;;;;;;2.20;0.70;;;;;26.20;100413.00;;;;2082700;28;20509;-58
2023/07/13 03:29:19;;;;;;;1.50;0.70;;;;;26.20;100416.00;;;;2069349;28;20288;-58
2023/07/13 03:30:19;;;;;;;0.70;0.50;;;;;26.20;100428.00;;;;2078366;28;20311;-58
2023/07/13 03:31:24;;;;;;;1.33;0.67;;;;;26.20;100415.00;;;;2078298;28;20217;-54
2023/07/13 03:32:25;;;;;;;1.10;0.80;;;;;26.20;100413.00;;;;2079122;28;20226;-54
2023/07/13 03:33:25;;;;;;;1.10;0.50;;;;;26.20;100420.00;;;;2078726;28;21659;-56
2023/07/13 03:34:26;;;;;;;1.13;0.63;;;;;26.20;100408.00;;;;2077440;28;20217;-54
2023/07/13 03:35:26;;;;;;;1.10;0.70;;;;;26.20;100413.00;;;;2081574;28;20279;-58
2023/07/13 03:36:28;;;;;;;1.27;0.60;;;;;26.20;100425.00;;;;2082503;28;20228;-59
2023/07/13 03:37:28;;;;;;;2.03;0.77;;;;;26.20;100410.00;;;;2078065;28;20217;-59
2023/07/13 03:38:28;;;;;;;0.90;0.60;;;;;26.20;100411.00;;;;2079553;28;20474;-58
2023/07/13 03:39:29;;;;;;;1.23;0.57;;;;;26.20;100412.00;;;;2074602;28;20212;-58
2023/07/13 03:40:29;;;;;;;0.90;0.60;;;;;26.20;100413.00;;;;2079541;28;20220;-57
2023/07/13 03:41:31;;;;;;;1.20;0.60;;;;;26.20;100426.00;;;;2078678;28;20249;-60
2023/07/13 03:42:31;;;;;;;1.10;0.70;;;;;26.20;100424.00;;;;2079886;28;20275;-57
2023/07/13 03:43:32;;;;;;;1.20;0.70;;;;;26.20;100418.00;;;;2079465;28;20593;-58
2023/07/13 03:44:32;;;;;;;0.90;0.70;;;;;26.20;100418.00;;;;2068408;28;20224;-58
2023/07/13 03:45:32;;;;;;;1.67;0.73;;;;;26.20;100422.00;;;;2077387;28;20274;-57
2023/07/13 03:46:33;;;;;;;1.33;0.80;;;;;26.20;100426.00;;;;2080562;28;20224;-57
2023/07/13 03:47:33;;;;;;;1.23;0.70;;;;;26.20;100424.00;;;;2079708;28;20231;-58
2023/07/13 03:48:34;;;;;;;1.70;0.83;;;;;26.20;100422.00;;;;2079468;28;20280;-57
2023/07/13 03:49:34;;;;;;;1.00;0.60;;;;;26.20;100428.00;;;;2072641;28;20248;-60
2023/07/13 03:50:35;;;;;;;1.63;0.73;;;;;26.20;100429.00;;;;2084345;28;20217;-58
2023/07/13 03:51:35;;;;;;;1.60;0.70;;;;;26.20;100426.00;;;;2078826;28;20260;-58
2023/07/13 03:52:35;;;;;;;1.13;0.70;;;;;26.20;100423.00;;;;2077657;28;20309;-57
2023/07/13 03:53:39;;;;;;;1.00;0.70;;;;;26.20;100424.00;;;;2078790;28;20217;-58
2023/07/13 03:54:39;;;;;;;1.20;0.60;;;;;26.20;100424.00;;;;2076277;28;20225;-58
2023/07/13 03:55:40;;;;;;;1.50;0.80;;;;;26.20;100431.00;;;;2085754;28;20489;-59
2023/07/13 03:56:40;;;;;;;2.13;0.80;;;;;26.20;100429.00;;;;2079601;28;20297;-59
2023/07/13 03:57:40;;;;;;;1.27;0.70;;;;;26.20;100432.00;;;;2077164;28;20221;-58
2023/07/13 03:58:41;;;;;;;1.20;0.80;;;;;26.20;100429.00;;;;2076258;28;20232;-57
2023/07/13 03:59:41;;;;;;;1.00;0.70;;;;;26.20;100433.00;;;;2083096;28;20252;-58
2023/07/13 04:00:42;;;;;;;0.93;0.50;;;;;26.20;100434.00;;;;2085831;28;20225;-58
2023/07/13 04:01:43;;;;;;;1.20;0.60;;;;;26.10;100435.00;;;;2077324;28;20218;-58
2023/07/13 04:02:43;;;;;;;1.17;0.70;;;;;26.20;100424.00;;;;2077913;28;20226;-57
2023/07/13 04:03:44;;;;;;;1.10;0.70;;;;;26.20;100442.00;;;;2068846;28;20468;-58
2023/07/13 04:04:44;;;;;;;0.90;0.67;;;;;26.20;100438.00;;;;2083067;28;20286;-62
2023/07/13 04:05:45;;;;;;;1.30;0.60;;;;;26.20;100432.00;;;;2085166;28;20221;-61
2023/07/13 04:06:45;;;;;;;2.90;0.60;;;;;26.10;100438.00;;;;2080193;28;20363;-62
2023/07/13 04:07:45;;;;;;;1.00;0.60;;;;;26.20;100444.00;;;;2077969;28;20213;-58
2023/07/13 04:08:46;;;;;;;2.50;0.80;;;;;26.20;100447.00;;;;2072450;28;20244;-58
2023/07/13 04:09:47;;;;;;;1.33;0.70;;;;;26.20;100445.00;;;;2077885;28;20237;-57
2023/07/13 04:10:47;;;;;;;1.13;0.60;;;;;26.20;100441.00;;;;2083887;28;20560;-58
2023/07/13 04:11:47;;;;;;;0.77;0.50;;;;;26.20;100449.00;;;;2078086;28;20210;-58
2023/07/13 04:12:48;;;;;;;1.20;0.83;;;;;26.20;100450.00;;;;2078210;28;20209;-59
2023/07/13 04:13:49;;;;;;;1.10;0.63;;;;;26.00;100446.00;;;;2069424;28;20240;-58
2023/07/13 04:14:50;;;;;;;1.80;0.63;;;;;26.20;100449.00;;;;2089674;28;20459;-57
2023/07/13 04:15:50;;;;;;;0.90;0.60;;;;;26.10;100455.00;;;;2090447;28;20219;-57
2023/07/13 04:16:51;;;;;;;0.83;0.63;;;;;26.20;100456.00;;;;2077746;28;20225;-57
2023/07/13 04:17:51;;;;;;;1.47;0.50;;;;;26.20;100446.00;;;;2078500;28;20228;-59
2023/07/13 04:18:54;;;;;;;1.23;0.90;;;;;26.10;100451.00;;;;2068445;28;20690;-58
2023/07/13 04:19:54;;;;;;;2.27;0.70;;;;;26.20;100448.00;;;;2084446;28;20384;-58
2023/07/13 04:20:55;;;;;;;1.10;0.70;;;;;26.20;100446.00;;;;2080023;28;21015;-57
2023/07/13 04:21:55;;;;;;;1.97;0.90;;;;;26.10;100449.00;;;;2084499;28;20716;-58
2023/07/13 04:22:57;;;;;;;2.90;0.83;;;;;26.10;100453.00;;;;2078913;28;20303;-59
2023/07/13 04:23:57;;;;;;;1.27;0.70;;;;;26.20;100446.00;;;;2073438;28;20222;-58
2023/07/13 04:24:58;;;;;;;1.03;0.50;;;;;26.10;100452.00;;;;2077870;28;20543;-57
2023/07/13 04:25:58;;;;;;;1.30;0.70;;;;;26.20;100449.00;;;;2081571;28;20212;-59
2023/07/13 04:27:00;;;;;;;1.00;0.63;;;;;26.10;100444.00;;;;2076378;28;20214;-60
2023/07/13 04:28:01;;;;;;;1.07;0.60;;;;;26.20;100477.00;;;;2078735;28;20228;-58
2023/07/13 04:29:03;;;;;;;1.60;0.80;;;;;26.10;100449.00;;;;2062518;28;20484;-58
2023/07/13 04:30:04;;;;;;;1.83;0.80;;;;;26.10;100451.00;;;;2069678;28;20491;-58
2023/07/13 04:31:05;;;;;;;1.50;0.70;;;;;26.10;100456.00;;;;2076609;28;20456;-59
2023/07/13 04:32:05;;;;;;;1.23;0.60;;;;;26.10;100462.00;;;;2076589;28;20873;-58
2023/07/13 04:33:06;;;;;;;1.70;0.60;;;;;26.20;100458.00;;;;2081541;28;20216;-57
2023/07/13 04:34:06;;;;;;;1.00;0.70;;;;;26.20;100457.00;;;;2067841;28;20218;-58
2023/07/13 04:35:07;;;;;;;1.53;0.83;;;;;26.10;100482.00;;;;2083298;28;20205;-57
2023/07/13 04:36:09;;;;;;;0.93;0.60;;;;;26.10;100456.00;;;;2083938;28;20601;-58
2023/07/13 04:37:09;;;;;;;1.20;0.67;;;;;26.20;100462.00;;;;2077984;28;21134;-60
2023/07/13 04:38:11;;;;;;;1.50;0.60;;;;;26.10;100459.00;;;;2077833;28;20456;-57
2023/07/13 04:39:11;;;;;;;1.40;0.70;;;;;26.20;100462.00;;;;2071686;28;20228;-55
2023/07/13 04:40:11;;;;;;;1.00;0.77;;;;;26.10;100459.00;;;;2079037;28;20510;-54
2023/07/13 04:41:12;;;;;;;1.00;0.60;;;;;26.20;100454.00;;;;2074501;28;20217;-58
2023/07/13 04:42:13;;;;;;;1.73;0.70;;;;;26.10;100452.00;;;;2080931;28;20205;-58
2023/07/13 04:43:13;;;;;;;1.10;0.60;;;;;26.10;100464.00;;;;2082460;28;20216;-59
2023/07/13 04:44:13;;;;;;;1.47;0.80;;;;;26.10;100464.00;;;;2070442;28;20220;-59
2023/07/13 04:45:14;;;;;;;1.80;0.60;;;;;26.10;100460.00;;;;2082168;28;20240;-55
2023/07/13 04:46:17;;;;;;;1.13;0.80;;;;;26.10;100459.00;;;;2078973;28;20224;-58
2023/07/13 04:47:18;;;;;;;1.10;0.50;;;;;26.20;100455.00;;;;2077777;28;20297;-59
2023/07/13 04:48:18;;;;;;;1.40;0.80;;;;;26.10;100460.00;;;;2087530;28;20455;-56
2023/07/13 04:49:19;;;;;;;1.10;0.60;;;;;26.10;100453.00;;;;2075955;28;20307;-57
2023/07/13 04:50:23;;;;;;;2.20;0.93;;;;;26.10;100464.00;;;;2078266;28;20240;-56
2023/07/13 04:51:23;;;;;;;1.43;0.80;;;;;26.10;100457.00;;;;2080612;28;20293;-57
2023/07/13 04:52:23;;;;;;;1.77;0.90;;;;;26.10;100459.00;;;;2074963;28;20822;-56
2023/07/13 04:53:24;;;;;;;1.77;0.50;;;;;26.10;100460.00;;;;2076624;28;20267;-57
2023/07/13 04:54:24;;;;;;;1.53;0.70;;;;;26.10;100463.00;;;;2068033;28;20337;-57
2023/07/13 04:55:25;;;;;;;1.30;0.70;;;;;26.20;100465.00;;;;2077973;28;20253;-55
2023/07/13 04:56:25;;;;;;;1.00;0.60;;;;;26.20;100481.00;;;;2080340;28;20224;-55
2023/07/13 04:57:26;;;;;;;1.33;0.60;;;;;26.20;100468.00;;;;2079418;28;22331;-54
2023/07/13 04:58:27;;;;;;;1.50;0.87;;;;;26.10;100459.00;;;;2086755;28;20315;-55
2023/07/13 04:59:27;;;;;;;2.00;0.80;;;;;26.10;100467.00;;;;2080883;28;20450;-57
2023/07/13 05:00:27;;;;;;;1.27;0.53;;;;;26.10;100462.00;;;;2092136;28;20680;-57
2023/07/13 05:01:28;;;;;;;2.50;0.60;;;;;26.20;100461.00;;;;2083775;28;20887;-61